CheckWX is a tool to help pilots better visualize weather data.  It is not intended as a substitute for an official pre-flight weather briefing.

10:08:57 UTC

KHZY METAR
Northeast Ohio Regional Airport
Ashtabula, Ohio, USA
Current

16 mins ago

KHZY 200953Z AUTO 11006KT 10SM CLR M04/M09 A3034 RMK AO2 SLP286 T10441089
Observed
Feb-20 @ 09:53 UTC
Wind
  • 110° at 6 KTS
Visibility
16,093 meters
Flight Rules
VFR
Cloud Levels
  • Clear skies
Temperature
-4°C / 25°F
Dewpoint
-9°C / 16°F
Humidity
69%
Altimeter
30.34" Hg
Pressure
1028.6 hPa
Previous

1 hour ago

KHZY 200853Z AUTO 09006KT 10SM CLR M04/M09 A3037 RMK AO2 PRESFR SLP296 T10441094 58029
Observed
Feb-20 @ 08:53 UTC
Wind
  • 090° at 6 KTS
Visibility
16,093 meters
Flight Rules
VFR
Cloud Levels
  • Clear skies
Temperature
-4°C / 25°F
Dewpoint
-9°C / 16°F
Humidity
69%
Altimeter
30.37" Hg
Pressure
1029.6 hPa
Previous

2 hours ago

KHZY 200753Z AUTO 09006KT 10SM CLR M04/M10 A3043 RMK AO2 SLP316 T10441100
Observed
Feb-20 @ 07:53 UTC
Wind
  • 090° at 6 KTS
Visibility
16,093 meters
Flight Rules
VFR
Cloud Levels
  • Clear skies
Temperature
-4°C / 25°F
Dewpoint
-10°C / 14°F
Humidity
63%
Altimeter
30.43" Hg
Pressure
1031.6 hPa